createdAt,value
2019-02-25T00:01:25.326Z,103778.16
2019-02-25T00:03:52.377Z,103774.33
2019-02-25T00:06:19.631Z,103773.41
2019-02-25T00:08:46.852Z,103774.55
2019-02-25T00:11:13.962Z,103773.38
2019-02-25T00:13:40.999Z,103772.30
2019-02-25T00:16:09.537Z,103772.20
2019-02-25T00:18:36.716Z,103779.83
2019-02-25T00:21:03.766Z,103771.44
2019-02-25T00:23:30.855Z,103775.87
2019-02-25T00:25:57.921Z,103780.47
2019-02-25T00:28:25.082Z,103780.53
2019-02-25T00:30:52.138Z,103775.55
2019-02-25T00:33:19.290Z,103772.80
2019-02-25T00:35:46.360Z,103772.80
2019-02-25T00:38:13.478Z,103768.96
2019-02-25T00:40:40.536Z,103772.91
2019-02-25T00:43:07.586Z,103773.19
2019-02-25T00:45:34.691Z,103773.41
2019-02-25T00:48:01.807Z,103764.77
2019-02-25T00:50:28.863Z,103768.87
2019-02-25T00:52:55.948Z,103772.23
2019-02-25T00:55:23.051Z,103766.17
2019-02-25T00:57:50.147Z,103767.03
2019-02-25T01:00:17.468Z,103757.78
2019-02-25T01:02:44.567Z,103762.71
2019-02-25T01:05:11.623Z,103761.69
2019-02-25T01:07:38.975Z,103765.47
2019-02-25T01:10:06.637Z,103761.74
2019-02-25T01:12:33.683Z,103764.02
2019-02-25T01:15:00.717Z,103757.95
2019-02-25T01:17:27.807Z,103757.73
2019-02-25T01:19:54.889Z,103764.06
2019-02-25T01:22:23.584Z,103768.06
2019-02-25T01:24:50.670Z,103774.83
2019-02-25T01:27:17.717Z,103772.55
2019-02-25T01:29:44.763Z,103770.55
2019-02-25T01:32:11.833Z,103768.98
2019-02-25T01:34:38.891Z,103774.98
2019-02-25T01:37:07.778Z,103763.04
2019-02-25T01:39:34.847Z,103763.15
2019-02-25T01:42:01.885Z,103762.28
2019-02-25T01:44:28.941Z,103754.38
2019-02-25T01:46:57.123Z,103752.00
2019-02-25T01:49:24.160Z,103746.87
2019-02-25T01:51:51.219Z,103745.19
2019-02-25T01:54:18.287Z,103746.55
2019-02-25T01:56:45.363Z,103746.22
2019-02-25T01:59:12.399Z,103747.98
2019-02-25T02:01:39.688Z,103747.12
2019-02-25T02:04:06.706Z,103750.84
2019-02-25T02:06:33.739Z,103749.34
2019-02-25T02:09:00.837Z,103757.02
2019-02-25T02:11:27.888Z,103761.68
2019-02-25T02:13:54.940Z,103764.50
2019-02-25T02:16:22.017Z,103761.63
2019-02-25T02:18:49.072Z,103757.25
2019-02-25T02:21:16.131Z,103750.81
2019-02-25T02:23:43.227Z,103749.41
2019-02-25T02:26:10.299Z,103753.56
2019-02-25T02:28:37.329Z,103749.34
2019-02-25T02:31:16.358Z,103755.66
2019-02-25T02:33:43.446Z,103761.02
2019-02-25T02:36:11.710Z,103760.96
2019-02-25T02:38:39.103Z,103746.27
2019-02-25T02:41:06.207Z,103756.64
2019-02-25T02:43:33.235Z,103756.20
2019-02-25T02:47:02.001Z,103752.62
2019-02-25T02:49:29.047Z,103752.09
2019-02-25T02:51:56.090Z,103750.30
2019-02-25T02:54:23.173Z,103751.05
2019-02-25T02:56:50.304Z,103758.29
2019-02-25T02:59:17.375Z,103749.64
2019-02-25T03:01:44.472Z,103752.02
2019-02-25T03:04:11.501Z,103748.63
2019-02-25T03:06:38.559Z,103753.44
2019-02-25T03:09:08.849Z,103753.98
2019-02-25T03:11:36.661Z,103758.36
2019-02-25T03:14:03.838Z,103759.82
2019-02-25T03:16:30.899Z,103755.59
2019-02-25T03:18:57.975Z,103762.84
2019-02-25T03:21:25.031Z,103758.83
2019-02-25T03:23:52.092Z,103754.61
2019-02-25T03:26:19.223Z,103751.64
2019-02-25T03:28:46.265Z,103749.64
2019-02-25T03:31:13.342Z,103747.96
2019-02-25T03:33:40.498Z,103745.20
2019-02-25T03:36:07.632Z,103748.01
2019-02-25T03:38:34.694Z,103736.01
2019-02-25T03:41:01.796Z,103740.91
2019-02-25T03:43:28.846Z,103747.97
2019-02-25T03:45:55.871Z,103747.27
2019-02-25T03:48:22.939Z,103751.32
2019-02-25T03:50:50.021Z,103751.32
2019-02-25T03:53:17.053Z,103749.65
2019-02-25T03:55:44.125Z,103746.68
2019-02-25T03:58:11.294Z,103740.24
2019-02-25T04:00:38.423Z,103738.61
2019-02-25T04:03:05.494Z,103740.28
2019-02-25T04:05:32.526Z,103737.36
2019-02-25T04:07:59.606Z,103749.66
2019-02-25T04:10:26.645Z,103744.30
2019-02-25T04:12:53.706Z,103741.29
2019-02-25T04:15:23.779Z,103734.27
2019-02-25T04:17:50.838Z,103731.84
2019-02-25T04:20:17.892Z,103730.00
2019-02-25T04:22:44.979Z,103724.66
2019-02-25T04:25:12.035Z,103725.20
2019-02-25T04:27:40.879Z,103720.22
2019-02-25T04:30:10.677Z,103725.62
2019-02-25T04:32:37.731Z,103725.99
2019-02-25T04:35:06.034Z,103725.78
2019-02-25T04:37:33.115Z,103733.18
2019-02-25T04:40:00.311Z,103729.16
2019-02-25T04:42:27.318Z,103728.95
2019-02-25T04:44:54.519Z,103735.13
2019-02-25T04:47:22.677Z,103736.05
2019-02-25T04:49:49.706Z,103734.00
2019-02-25T04:52:16.789Z,103736.81
2019-02-25T04:54:43.935Z,103723.77
2019-02-25T04:57:11.035Z,103729.16
2019-02-25T04:59:38.098Z,103727.70
2019-02-25T05:02:42.940Z,103715.33
2019-02-25T05:05:10.459Z,103710.86
2019-02-25T05:07:37.500Z,103710.10
2019-02-25T05:10:05.432Z,103712.65
2019-02-25T05:12:32.516Z,103706.83
2019-02-25T05:14:59.557Z,103706.90
2019-02-25T05:17:26.628Z,103708.05
2019-02-25T05:19:53.693Z,103715.08
2019-02-25T05:22:20.733Z,103724.69
2019-02-25T05:24:47.810Z,103722.69
2019-02-25T05:27:14.962Z,103722.91
2019-02-25T05:30:18.770Z,103731.66
2019-02-25T05:32:45.867Z,103735.06
2019-02-25T05:35:12.921Z,103737.75
2019-02-25T05:37:39.991Z,103732.23
2019-02-25T05:40:10.212Z,103724.67
2019-02-25T05:43:20.264Z,103730.87
2019-02-25T05:45:47.495Z,103734.80
2019-02-25T05:48:15.559Z,103728.20
2019-02-25T05:50:42.608Z,103736.19
2019-02-25T05:53:09.700Z,103730.80
2019-02-25T05:55:36.873Z,103727.12
2019-02-25T05:58:03.936Z,103727.53
2019-02-25T06:00:31.425Z,103729.80
2019-02-25T06:02:58.480Z,103731.52
2019-02-25T06:05:25.520Z,103737.28
2019-02-25T06:07:52.595Z,103733.64
2019-02-25T06:10:19.740Z,103730.12
2019-02-25T06:12:46.792Z,103732.55
2019-02-25T06:15:14.428Z,103736.48
2019-02-25T06:17:41.478Z,103725.78
2019-02-25T06:20:09.490Z,103724.86
2019-02-25T06:22:36.557Z,103724.15
2019-02-25T06:25:04.432Z,103729.00
2019-02-25T06:27:31.470Z,103726.95
2019-02-25T06:29:58.561Z,103733.05
2019-02-25T06:32:25.608Z,103721.77
2019-02-25T06:34:52.701Z,103719.00
2019-02-25T06:37:22.826Z,103721.42
2019-02-25T06:39:49.897Z,103726.19
2019-02-25T06:42:16.949Z,103732.72
2019-02-25T06:44:44.019Z,103740.25
2019-02-25T06:47:11.082Z,103738.86
2019-02-25T06:49:38.461Z,103746.59
2019-02-25T06:52:05.519Z,103751.45
2019-02-25T06:54:32.598Z,103755.37
2019-02-25T06:56:59.679Z,103760.19
2019-02-25T06:59:35.607Z,103757.77
2019-02-25T07:02:02.640Z,103757.34
2019-02-25T07:04:56.402Z,103757.89
2019-02-25T07:07:46.060Z,103755.92
2019-02-25T07:10:32.191Z,103760.94
2019-02-25T07:16:27.707Z,103763.82
2019-02-25T07:19:11.421Z,103767.84
2019-02-25T07:21:58.736Z,103769.97
2019-02-25T07:24:32.764Z,103766.37
2019-02-25T07:27:23.289Z,103764.77
2019-02-25T07:30:17.557Z,103766.69
2019-02-25T07:33:07.230Z,103768.13
2019-02-25T07:35:56.877Z,103770.38
2019-02-25T07:38:52.368Z,103761.47
2019-02-25T07:41:51.091Z,103766.11
2019-02-25T07:44:29.262Z,103763.45
2019-02-25T07:47:19.047Z,103765.55
2019-02-25T07:50:08.787Z,103769.35
2019-02-25T07:52:47.633Z,103773.84
2019-02-25T07:55:33.082Z,103779.63
2019-02-25T07:58:26.920Z,103775.45
2019-02-25T08:01:03.581Z,103786.95
2019-02-25T08:03:55.246Z,103784.39
2019-02-25T08:06:47.971Z,103781.92
2019-02-25T08:09:33.195Z,103779.52
2019-02-25T08:12:19.862Z,103781.13
2019-02-25T08:15:12.665Z,103782.30
2019-02-25T08:18:02.765Z,103780.38
2019-02-25T08:20:48.183Z,103781.05
2019-02-25T08:23:30.654Z,103767.64
2019-02-25T08:26:38.693Z,103766.28
2019-02-25T08:29:28.278Z,103768.44
2019-02-25T08:32:21.387Z,103775.45
2019-02-25T08:35:14.031Z,103775.87
2019-02-25T08:37:56.154Z,103784.55
2019-02-25T08:41:16.937Z,103791.43
2019-02-25T08:44:03.614Z,103790.72
2019-02-25T08:46:53.514Z,103797.19
2019-02-25T08:49:24.352Z,103795.80
2019-02-25T08:51:51.404Z,103799.27
2019-02-25T08:54:18.491Z,103800.78
2019-02-25T08:56:45.600Z,103797.96
2019-02-25T08:59:12.748Z,103801.51
2019-02-25T09:01:39.916Z,103804.67
2019-02-25T09:04:06.988Z,103806.42
2019-02-25T09:06:34.049Z,103809.33
2019-02-25T09:09:01.130Z,103812.87
2019-02-25T09:11:46.387Z,103822.70
2019-02-25T09:14:13.433Z,103824.03
2019-02-25T09:16:40.591Z,103823.51
2019-02-25T09:20:03.000Z,103821.67
2019-02-25T09:22:36.293Z,103814.72
2019-02-25T09:25:03.615Z,103819.41
2019-02-25T09:27:30.709Z,103816.90
2019-02-25T09:29:57.776Z,103821.35
2019-02-25T09:32:24.863Z,103820.93
2019-02-25T09:34:51.932Z,103817.25
2019-02-25T09:37:19.068Z,103816.42
2019-02-25T09:39:46.116Z,103812.45
2019-02-25T09:42:13.210Z,103805.18
2019-02-25T09:44:40.249Z,103807.11
2019-02-25T09:47:07.347Z,103807.09
2019-02-25T09:49:34.455Z,103811.14
2019-02-25T09:52:01.731Z,103811.39
2019-02-25T09:54:28.848Z,103804.61
2019-02-25T09:56:55.967Z,103803.50
2019-02-25T09:59:23.088Z,103813.97
2019-02-25T10:01:50.207Z,103814.02
2019-02-25T10:04:17.387Z,103816.17
2019-02-25T10:06:44.499Z,103821.22
2019-02-25T10:09:11.713Z,103816.36
2019-02-25T10:11:38.763Z,103817.23
2019-02-25T10:14:05.884Z,103814.91
2019-02-25T10:16:32.971Z,103812.19
2019-02-25T10:19:00.063Z,103813.22
2019-02-25T10:21:28.360Z,103813.23
2019-02-25T10:23:55.482Z,103811.64
2019-02-25T10:26:22.623Z,103817.94
2019-02-25T10:28:49.691Z,103813.02
2019-02-25T10:31:17.495Z,103806.33
2019-02-25T10:33:44.624Z,103803.45
2019-02-25T10:37:05.603Z,103798.76
2019-02-25T10:39:32.663Z,103797.67
2019-02-25T10:42:01.601Z,103804.16
2019-02-25T10:44:29.719Z,103805.14
2019-02-25T10:46:57.263Z,103805.91
2019-02-25T10:49:25.096Z,103801.70
2019-02-25T10:51:53.334Z,103806.30
2019-02-25T10:54:21.254Z,103793.28
2019-02-25T10:56:54.216Z,103788.95
2019-02-25T10:59:24.485Z,103786.21
2019-02-25T11:02:11.602Z,103784.59
2019-02-25T11:04:39.658Z,103772.48
2019-02-25T11:07:27.192Z,103772.61
2019-02-25T11:10:20.332Z,103770.48
2019-02-25T11:12:48.893Z,103768.78
2019-02-25T11:15:16.068Z,103763.09
2019-02-25T11:17:43.225Z,103758.94
2019-02-25T11:21:13.535Z,103759.95
2019-02-25T11:23:40.601Z,103753.70
2019-02-25T11:26:09.312Z,103754.33
2019-02-25T11:28:39.190Z,103749.05
2019-02-25T11:31:05.590Z,103747.72
2019-02-25T11:33:34.351Z,103752.58
2019-02-25T11:36:01.627Z,103750.92
2019-02-25T11:38:30.404Z,103754.84
2019-02-25T11:40:59.833Z,103752.59
2019-02-25T11:43:27.602Z,103748.10
2019-02-25T11:46:35.827Z,103739.58
2019-02-25T11:49:03.160Z,103734.18
2019-02-25T11:51:30.325Z,103732.23
2019-02-25T11:53:59.440Z,103721.36
2019-02-25T11:56:26.586Z,103719.59
2019-02-25T11:58:53.671Z,103718.59
2019-02-25T12:01:20.807Z,103718.09
2019-02-25T12:03:47.904Z,103719.62
2019-02-25T12:06:14.960Z,103717.98
2019-02-25T12:08:42.137Z,103718.18
2019-02-25T12:11:09.251Z,103712.05
2019-02-25T12:13:36.354Z,103715.88
2019-02-25T12:16:03.523Z,103715.55
2019-02-25T12:18:30.688Z,103713.53
2019-02-25T12:20:57.839Z,103709.32
2019-02-25T12:23:24.904Z,103703.70
2019-02-25T12:25:51.988Z,103697.05
2019-02-25T12:28:19.186Z,103689.52
2019-02-25T12:30:46.303Z,103686.39
2019-02-25T12:33:13.353Z,103672.84
2019-02-25T12:35:40.434Z,103666.40
2019-02-25T12:38:07.560Z,103664.78
2019-02-25T12:40:34.605Z,103669.44
2019-02-25T12:43:01.657Z,103666.44
2019-02-25T12:45:29.086Z,103654.66
2019-02-25T12:47:56.190Z,103655.80
2019-02-25T12:50:24.360Z,103647.36
2019-02-25T12:52:51.444Z,103638.16
2019-02-25T12:55:18.495Z,103630.59
2019-02-25T12:58:24.693Z,103621.60
2019-02-25T13:00:51.802Z,103618.00
2019-02-25T13:03:18.978Z,103605.43
2019-02-25T13:05:46.146Z,103592.75
2019-02-25T13:08:14.946Z,103583.75
2019-02-25T13:10:42.014Z,103569.95
2019-02-25T13:13:09.063Z,103567.58
2019-02-25T13:15:36.143Z,103552.51
2019-02-25T13:18:03.294Z,103549.50
2019-02-25T13:20:30.351Z,103536.19
2019-02-25T13:22:57.459Z,103530.56
2019-02-25T13:25:25.670Z,103533.17
2019-02-25T13:27:54.355Z,103538.17
2019-02-25T13:30:21.853Z,103540.44
2019-02-25T13:32:48.937Z,103532.13
2019-02-25T13:35:15.997Z,103534.23
2019-02-25T13:37:43.520Z,103534.25
2019-02-25T13:40:10.704Z,103538.34
2019-02-25T13:42:37.764Z,103529.52
2019-02-25T13:45:05.127Z,103534.12
2019-02-25T13:47:32.369Z,103524.87
2019-02-25T13:49:59.521Z,103527.81
2019-02-25T13:52:26.602Z,103521.39
2019-02-25T13:55:19.529Z,103515.34
2019-02-25T13:57:46.621Z,103510.00
2019-02-25T14:00:16.132Z,103509.05
2019-02-25T14:02:43.651Z,103508.63
2019-02-25T14:05:10.763Z,103507.24
2019-02-25T14:07:37.925Z,103509.70
2019-02-25T14:10:06.770Z,103513.19
2019-02-25T14:12:33.919Z,103507.03
2019-02-25T14:15:01.009Z,103512.12
2019-02-25T14:17:28.165Z,103509.83
2019-02-25T14:19:55.416Z,103517.03
2019-02-25T14:22:22.509Z,103520.91
2019-02-25T14:24:49.757Z,103524.91
2019-02-25T14:27:16.809Z,103530.08
2019-02-25T14:29:44.641Z,103530.08
2019-02-25T14:32:15.263Z,103532.23
2019-02-25T14:34:44.423Z,103530.54
2019-02-25T14:37:13.758Z,103526.42
2019-02-25T14:39:43.142Z,103531.34
2019-02-25T14:42:11.985Z,103530.05
2019-02-25T14:48:15.387Z,103534.87
2019-02-25T14:50:41.814Z,103531.63
2019-02-25T14:53:11.577Z,103530.13
2019-02-25T14:55:40.670Z,103546.14
2019-02-25T14:58:09.844Z,103537.66
2019-02-25T15:00:38.389Z,103534.23
2019-02-25T15:03:05.475Z,103539.42
2019-02-25T15:05:32.648Z,103539.93
2019-02-25T15:08:00.054Z,103538.76
2019-02-25T15:10:29.654Z,103535.07
2019-02-25T15:12:58.659Z,103541.63
2019-02-25T15:22:33.961Z,103544.30
2019-02-25T15:25:01.250Z,103551.74
2019-02-25T15:27:28.311Z,103552.34
2019-02-25T15:29:56.579Z,103554.80
2019-02-25T15:32:23.637Z,103552.93
2019-02-25T15:34:51.202Z,103558.81
2019-02-25T15:37:19.658Z,103552.88
2019-02-25T15:39:46.760Z,103550.68
2019-02-25T15:42:16.629Z,103552.24
2019-02-25T15:44:44.508Z,103549.28
2019-02-25T15:47:13.328Z,103552.05
2019-02-25T15:49:43.745Z,103557.63
2019-02-25T15:52:14.648Z,103557.56
2019-02-25T15:54:41.425Z,103555.45
2019-02-25T15:57:09.081Z,103552.30
2019-02-25T15:59:45.040Z,103551.88
2019-02-25T16:02:14.175Z,103561.48
2019-02-25T16:04:42.367Z,103552.27
2019-02-25T16:07:10.563Z,103560.14
2019-02-25T16:09:45.229Z,103561.92
2019-02-25T16:12:12.358Z,103558.66
2019-02-25T16:14:39.572Z,103559.71
2019-02-25T16:17:06.645Z,103555.38
2019-02-25T16:19:41.305Z,103563.55
2019-02-25T16:22:03.524Z,103567.73
2019-02-25T16:24:31.964Z,103567.09
2019-02-25T16:27:00.526Z,103566.19
2019-02-25T16:29:28.031Z,103573.64
2019-02-25T16:31:55.600Z,103569.64
2019-02-25T16:34:23.953Z,103573.78
2019-02-25T16:36:52.000Z,103572.01
2019-02-25T16:39:20.123Z,103570.34
2019-02-25T16:41:47.791Z,103574.84
2019-02-25T16:44:15.126Z,103572.92
2019-02-25T16:46:43.849Z,103584.88
2019-02-25T16:49:11.469Z,103579.30
2019-02-25T16:51:38.588Z,103582.33
2019-02-25T16:54:11.011Z,103584.47
2019-02-25T16:56:36.633Z,103587.12
2019-02-25T16:59:10.615Z,103591.59
2019-02-25T17:01:34.968Z,103589.61
2019-02-25T17:04:01.824Z,103587.78
2019-02-25T17:06:30.400Z,103592.98
2019-02-25T17:08:57.981Z,103597.16
2019-02-25T17:11:25.018Z,103591.66
2019-02-25T17:13:53.000Z,103599.84
2019-02-25T17:16:24.116Z,103590.06
2019-02-25T17:18:50.269Z,103596.89
2019-02-25T17:21:17.345Z,103600.86
2019-02-25T17:23:44.423Z,103592.29
2019-02-25T17:26:12.630Z,103605.34
2019-02-25T17:28:40.689Z,103600.80
2019-02-25T17:31:08.980Z,103602.34
2019-02-25T17:33:37.519Z,103606.30
2019-02-25T17:36:06.234Z,103611.41
2019-02-25T17:38:41.120Z,103613.34
2019-02-25T17:41:13.129Z,103606.42
2019-02-25T17:43:42.546Z,103611.65
2019-02-25T17:46:11.535Z,103613.87
2019-02-25T17:48:38.505Z,103613.94
2019-02-25T17:51:05.678Z,103618.63
2019-02-25T17:53:32.858Z,103622.91
2019-02-25T17:56:00.260Z,103614.53
2019-02-25T17:58:27.332Z,103609.19
2019-02-25T18:00:56.334Z,103617.34
2019-02-25T18:03:24.271Z,103619.59
2019-02-25T18:05:52.960Z,103613.60
2019-02-25T18:08:22.806Z,103615.42
2019-02-25T18:10:51.978Z,103615.52
2019-02-25T18:13:19.786Z,103608.78
2019-02-25T18:15:51.549Z,103607.56
2019-02-25T18:18:25.528Z,103601.38
2019-02-25T18:20:53.629Z,103605.38
2019-02-25T18:23:21.722Z,103597.47
2019-02-25T18:25:49.339Z,103594.57
2019-02-25T18:28:17.849Z,103602.52
2019-02-25T18:30:45.586Z,103609.25
2019-02-25T18:33:13.425Z,103603.38
2019-02-25T18:35:41.663Z,103603.38
2019-02-25T18:38:09.899Z,103600.23
2019-02-25T18:40:38.769Z,103595.50
2019-02-25T18:43:07.110Z,103594.38
2019-02-25T18:45:38.460Z,103595.08
2019-02-25T18:48:07.898Z,103598.30
2019-02-25T18:50:35.965Z,103600.45
2019-02-25T18:53:03.662Z,103602.84
2019-02-25T18:55:34.229Z,103602.89
2019-02-25T18:58:05.628Z,103596.25
2019-02-25T19:03:24.981Z,103594.16
2019-02-25T19:05:57.053Z,103593.94
2019-02-25T19:08:26.780Z,103595.80
2019-02-25T19:11:51.230Z,103598.95
2019-02-25T19:14:21.786Z,103602.62
2019-02-25T19:16:48.688Z,103599.64
2019-02-25T19:19:18.792Z,103595.08
2019-02-25T19:21:47.865Z,103597.01
2019-02-25T19:24:18.274Z,103598.98
2019-02-25T19:26:46.926Z,103596.62
2019-02-25T19:29:15.229Z,103600.94
2019-02-25T19:31:44.056Z,103597.80
2019-02-25T19:34:11.300Z,103608.52
2019-02-25T19:36:41.241Z,103607.71
2019-02-25T19:39:12.403Z,103603.09
2019-02-25T19:41:40.549Z,103605.83
2019-02-25T19:44:08.040Z,103604.12
2019-02-25T19:46:45.644Z,103603.06
2019-02-25T19:49:16.003Z,103597.81
2019-02-25T19:52:02.172Z,103605.23
2019-02-25T19:54:29.627Z,103598.02
2019-02-25T19:56:58.000Z,103600.88
2019-02-25T19:59:26.828Z,103597.72
2019-02-25T20:01:54.503Z,103599.39
2019-02-25T20:04:21.653Z,103604.06
2019-02-25T20:06:49.441Z,103607.64
2019-02-25T20:09:18.740Z,103609.20
2019-02-25T20:11:45.880Z,103607.12
2019-02-25T20:14:16.498Z,103614.53
2019-02-25T20:16:42.137Z,103602.34
2019-02-25T20:19:29.579Z,103599.46
2019-02-25T20:21:57.162Z,103595.02
2019-02-25T20:24:25.632Z,103586.22
2019-02-25T20:26:57.623Z,103583.23
2019-02-25T20:29:22.033Z,103588.72
2019-02-25T20:31:50.177Z,103581.78
2019-02-25T20:34:20.466Z,103580.09
2019-02-25T20:36:48.316Z,103575.90
2019-02-25T20:39:17.047Z,103578.09
2019-02-25T20:41:45.817Z,103572.31
2019-02-25T20:44:13.797Z,103575.28
2019-02-25T20:46:40.901Z,103565.34
2019-02-25T20:49:08.121Z,103566.86
2019-02-25T20:51:36.208Z,103561.50
2019-02-25T20:54:03.430Z,103561.64
2019-02-25T20:56:31.485Z,103560.31
2019-02-25T20:59:06.177Z,103556.50
2019-02-25T21:01:37.143Z,103551.36
2019-02-25T21:04:02.977Z,103552.34
2019-02-25T21:06:30.147Z,103547.91
2019-02-25T21:09:06.586Z,103548.53
2019-02-25T21:11:33.891Z,103547.87
2019-02-25T21:14:00.991Z,103542.91
2019-02-25T21:16:30.482Z,103538.42
2019-02-25T21:18:57.435Z,103542.67
2019-02-25T21:21:24.561Z,103541.72
2019-02-25T21:23:51.735Z,103544.28
2019-02-25T21:26:18.850Z,103547.23
2019-02-25T21:28:46.059Z,103553.80
2019-02-25T21:31:14.595Z,103555.88
2019-02-25T21:33:44.872Z,103556.89
2019-02-25T21:36:11.183Z,103552.45
2019-02-25T21:38:38.250Z,103547.58
2019-02-25T21:41:07.479Z,103552.59
2019-02-25T21:43:34.506Z,103551.77
2019-02-25T21:46:01.792Z,103552.40
2019-02-25T21:48:30.250Z,103553.80
2019-02-25T21:51:02.223Z,103551.28
2019-02-25T21:53:27.317Z,103548.67
2019-02-25T21:55:55.972Z,103550.66
2019-02-25T21:58:25.350Z,103550.42
2019-02-25T22:00:53.338Z,103544.77
2019-02-25T22:03:21.809Z,103551.32
2019-02-25T22:05:49.483Z,103552.18
2019-02-25T22:08:20.099Z,103553.42
2019-02-25T22:10:47.035Z,103549.20
2019-02-25T22:13:15.942Z,103549.02
2019-02-25T22:15:49.059Z,103543.61
2019-02-25T22:18:16.261Z,103546.15
2019-02-25T22:20:45.392Z,103549.67
2019-02-25T22:23:12.337Z,103540.12
2019-02-25T22:25:39.529Z,103543.05
2019-02-25T22:28:07.846Z,103543.23
2019-02-25T22:30:35.583Z,103537.97
2019-02-25T22:33:04.704Z,103530.48
2019-02-25T22:35:35.492Z,103530.63
2019-02-25T22:38:02.728Z,103535.30
2019-02-25T22:40:32.139Z,103538.37
2019-02-25T22:42:59.054Z,103546.11
2019-02-25T22:45:26.237Z,103543.75
2019-02-25T22:47:53.332Z,103537.33
2019-02-25T22:50:20.406Z,103538.78
2019-02-25T22:52:51.638Z,103539.31
2019-02-25T22:55:18.486Z,103543.92
2019-02-25T22:57:50.511Z,103539.13
2019-02-25T23:00:28.237Z,103548.00
2019-02-25T23:02:56.778Z,103538.45
2019-02-25T23:05:25.508Z,103548.16
2019-02-25T23:07:54.568Z,103549.84
2019-02-25T23:10:22.332Z,103551.91
2019-02-25T23:12:50.755Z,103550.91
2019-02-25T23:15:18.645Z,103546.09
2019-02-25T23:17:47.078Z,103556.80
2019-02-25T23:20:20.264Z,103551.98
2019-02-25T23:22:47.327Z,103552.75
2019-02-25T23:25:14.448Z,103553.82
2019-02-25T23:27:41.528Z,103544.05
2019-02-25T23:30:09.094Z,103540.91
2019-02-25T23:32:39.422Z,103544.27
2019-02-25T23:35:09.427Z,103543.94
2019-02-25T23:37:36.575Z,103548.59
2019-02-25T23:40:06.741Z,103535.22
2019-02-25T23:42:35.597Z,103536.30
2019-02-25T23:45:02.055Z,103539.13
2019-02-25T23:47:31.150Z,103536.45
2019-02-25T23:49:58.139Z,103536.91
2019-02-25T23:52:25.695Z,103538.82
2019-02-25T23:54:54.765Z,103532.17
2019-02-25T23:57:23.848Z,103532.86
2019-02-25T23:59:53.991Z,103530.41
